Time;durP1;ratioP1;P1;durP2;ratioP2;P2;SDS_P1;SDS_P2;PMS_P1;PMS_P2;Temp;Humidity;BMP_temperature;BMP_pressure;BME280_temperature;BME280_humidity;BME280_pressure;Samples;Min_cycle;Max_cycle;Signal;HPM_P1;HPM_P2
2022/09/04 00:01:56;;;;;;;6.00;3.80;;;;;;;16.32;55.48;100929.38;117225;1186;22176;-64
2022/09/04 00:04:23;;;;;;;7.50;3.80;;;;;;;16.31;55.60;100931.70;117196;1186;24236;-56
2022/09/04 00:07:20;;;;;;;5.50;3.80;;;;;;;16.31;55.34;100922.84;117328;1186;21854;-67
2022/09/04 00:10:22;;;;;;;5.30;3.90;;;;;;;16.30;55.47;100923.39;117354;1185;24161;-64
2022/09/04 00:13:07;;;;;;;4.80;3.70;;;;;;;16.29;55.40;100923.80;117209;1183;22937;-64
2022/09/04 00:15:38;;;;;;;6.70;3.90;;;;;;;16.26;55.41;100922.27;117275;1185;23635;-64
2022/09/04 00:18:07;;;;;;;8.40;4.10;;;;;;;16.25;55.44;100921.93;117173;1183;23549;-56
2022/09/04 00:20:59;;;;;;;5.90;3.70;;;;;;;16.24;55.37;100923.75;117259;1183;24243;-66
2022/09/04 00:23:38;;;;;;;5.70;3.90;;;;;;;16.24;55.31;100927.11;117044;1188;21867;-58
2022/09/04 00:26:22;;;;;;;5.40;3.60;;;;;;;16.21;55.38;100929.65;117134;1186;23477;-66
2022/09/04 00:28:50;;;;;;;5.90;3.90;;;;;;;16.20;55.40;100933.40;117123;1183;23586;-58
2022/09/04 00:31:29;;;;;;;6.20;3.80;;;;;;;16.18;55.34;100934.69;117224;1183;23448;-57
2022/09/04 00:34:31;;;;;;;5.40;3.70;;;;;;;16.16;55.32;100938.80;117020;1186;22218;-58
2022/09/04 00:37:03;;;;;;;6.00;3.80;;;;;;;16.15;55.37;100942.55;117335;1186;23651;-66
2022/09/04 00:39:44;;;;;;;5.80;3.70;;;;;;;16.14;55.34;100938.70;117146;1188;21858;-58
2022/09/04 00:42:33;;;;;;;6.40;3.90;;;;;;;16.11;55.35;100941.61;117047;1186;22161;-58
2022/09/04 00:45:13;;;;;;;6.10;4.10;;;;;;;16.08;55.49;100944.18;117007;1185;21863;-58
2022/09/04 00:47:57;;;;;;;6.80;3.70;;;;;;;16.04;55.65;100954.54;117073;1182;23470;-66
2022/09/04 00:50:58;;;;;;;6.50;3.90;;;;;;;16.01;55.67;100957.79;117199;1186;22924;-58
2022/09/04 00:53:53;;;;;;;7.80;4.60;;;;;;;16.00;55.67;100959.75;117036;1186;21863;-66
2022/09/04 00:56:52;;;;;;;7.20;3.70;;;;;;;15.99;55.84;100967.22;116977;1185;22935;-57
2022/09/04 00:59:56;;;;;;;4.80;3.40;;;;;;;16.00;56.15;100975.70;117068;1186;22931;-57
2022/09/04 01:03:01;;;;;;;6.90;4.00;;;;;;;15.98;56.03;100981.75;116934;1185;22912;-65
2022/09/04 01:05:39;;;;;;;6.30;3.90;;;;;;;15.98;56.19;100987.79;117063;1189;21894;-65
2022/09/04 01:08:26;;;;;;;6.90;3.40;;;;;;;15.97;56.13;100991.16;116885;1186;21910;-58
2022/09/04 01:11:30;;;;;;;6.20;4.40;;;;;;;15.95;56.35;100989.80;116926;1182;21859;-58
2022/09/04 01:14:12;;;;;;;5.30;4.00;;;;;;;15.94;56.29;100986.30;116943;1186;23912;-58
2022/09/04 01:17:03;;;;;;;10.00;4.10;;;;;;;15.90;56.34;100986.73;117040;1185;22931;-65
2022/09/04 01:19:51;;;;;;;7.20;4.30;;;;;;;15.86;56.14;100980.80;117007;1186;23581;-65
2022/09/04 01:22:34;;;;;;;5.50;3.80;;;;;;;15.83;56.04;100979.11;116976;1182;22929;-58
2022/09/04 01:25:04;;;;;;;5.80;4.20;;;;;;;15.79;56.19;100986.44;116862;1186;23607;-65
2022/09/04 01:27:46;;;;;;;7.00;3.90;;;;;;;15.74;56.15;100987.80;117024;1187;21860;-66
2022/09/04 01:30:15;;;;;;;6.90;4.60;;;;;;;15.69;56.09;100990.92;117087;1186;21967;-58
2022/09/04 01:33:10;;;;;;;9.50;5.10;;;;;;;15.66;56.05;100989.77;116869;1186;23582;-66
2022/09/04 01:36:00;;;;;;;6.30;4.10;;;;;;;15.63;56.00;100991.79;116934;1186;23044;-58
2022/09/04 01:38:42;;;;;;;7.20;4.40;;;;;;;15.60;55.95;100993.95;116970;1186;23491;-66
2022/09/04 01:41:32;;;;;;;5.10;3.90;;;;;;;15.57;56.04;100994.02;116897;1187;21860;-65
2022/09/04 01:44:08;;;;;;;7.40;4.40;;;;;;;15.53;56.01;100989.70;116894;1186;22932;-58
2022/09/04 01:46:57;;;;;;;8.10;4.20;;;;;;;15.51;56.03;100988.89;117035;1186;23056;-65
2022/09/04 01:49:27;;;;;;;7.00;4.50;;;;;;;15.47;55.95;100988.42;116994;1182;23031;-57
2022/09/04 01:52:06;;;;;;;5.40;4.00;;;;;;;15.45;56.05;100987.59;117049;1186;21863;-58
2022/09/04 01:54:52;;;;;;;5.60;4.20;;;;;;;15.41;56.02;100992.30;116997;1184;22929;-58
2022/09/04 01:57:32;;;;;;;6.20;3.60;;;;;;;15.38;56.00;100996.40;117051;1186;23478;-66
2022/09/04 02:00:08;;;;;;;8.00;4.40;;;;;;;15.35;55.97;100985.87;117040;1187;23041;-57
2022/09/04 02:02:55;;;;;;;7.40;3.90;;;;;;;15.34;56.02;100984.83;117082;1183;23594;-66
2022/09/04 02:05:28;;;;;;;5.40;3.90;;;;;;;15.32;56.12;100988.95;117097;1186;22926;-66
2022/09/04 02:08:10;;;;;;;8.10;4.80;;;;;;;15.28;56.19;100993.44;117098;1185;22610;-66
2022/09/04 02:10:53;;;;;;;6.40;4.30;;;;;;;15.26;56.18;101000.02;117094;1182;22911;-66
2022/09/04 02:13:28;;;;;;;8.10;4.30;;;;;;;15.26;56.49;101003.73;116891;1184;22922;-66
2022/09/04 02:16:03;;;;;;;8.30;4.60;;;;;;;15.24;56.44;101000.08;117041;1182;21853;-66
2022/09/04 02:18:40;;;;;;;6.00;3.80;;;;;;;15.25;56.40;100997.23;117093;1188;23001;-66
2022/09/04 02:21:30;;;;;;;7.20;4.40;;;;;;;15.26;56.41;100993.66;116894;1188;22932;-66
2022/09/04 02:24:06;;;;;;;8.70;3.90;;;;;;;15.26;56.37;100994.19;117101;1183;24164;-57
2022/09/04 02:26:41;;;;;;;8.50;4.90;;;;;;;15.27;56.35;100992.05;117091;1183;23707;-64
2022/09/04 02:29:31;;;;;;;6.50;4.60;;;;;;;15.28;56.34;100992.56;117137;1182;23465;-66
2022/09/04 02:32:20;;;;;;;7.00;4.50;;;;;;;15.30;56.38;100991.27;117153;1186;21860;-66
2022/09/04 02:34:56;;;;;;;10.50;4.20;;;;;;;15.28;56.42;100993.09;117234;1188;23448;-66
2022/09/04 02:37:29;;;;;;;6.00;4.10;;;;;;;15.27;56.22;100990.98;117298;1186;22095;-66
2022/09/04 02:40:31;;;;;;;6.70;4.80;;;;;;;15.27;56.41;100993.82;117315;1183;23576;-55
2022/09/04 02:43:20;;;;;;;6.50;4.10;;;;;;;15.25;56.50;100991.04;116978;1183;22943;-57
2022/09/04 02:46:09;;;;;;;10.70;4.90;;;;;;;15.21;56.46;100994.48;117141;1185;24310;-66
2022/09/04 02:48:46;;;;;;;7.30;5.00;;;;;;;15.22;56.42;100992.89;117006;1187;22964;-57
2022/09/04 02:51:35;;;;;;;6.70;4.20;;;;;;;15.21;56.56;100990.42;117045;1186;23573;-66
2022/09/04 02:54:32;;;;;;;7.20;4.20;;;;;;;15.19;56.67;100996.66;117166;1189;21859;-58
2022/09/04 02:57:08;;;;;;;8.00;4.40;;;;;;;15.16;56.66;101002.36;116974;1186;23579;-66
2022/09/04 02:59:54;;;;;;;5.00;4.00;;;;;;;15.16;56.83;101004.84;117012;1184;22916;-65
2022/09/04 03:02:53;;;;;;;10.30;5.10;;;;;;;15.18;56.73;101009.77;117014;1184;24183;-55
2022/09/04 03:05:22;;;;;;;7.10;4.50;;;;;;;15.19;56.73;101009.04;116982;1188;22991;-64
2022/09/04 03:08:11;;;;;;;5.60;4.10;;;;;;;15.21;56.73;101009.88;117044;1186;22163;-63
2022/09/04 03:10:42;;;;;;;10.40;4.70;;;;;;;15.22;56.73;101013.74;117095;1186;23647;-57
2022/09/04 03:13:19;;;;;;;9.10;4.40;;;;;;;15.24;56.71;101012.98;117060;1183;24174;-57
2022/09/04 03:16:03;;;;;;;7.50;4.50;;;;;;;15.26;56.69;101014.52;117011;1183;22932;-65
2022/09/04 03:18:54;;;;;;;8.60;4.20;;;;;;;15.28;56.76;101018.02;119049;1186;21833;-58
2022/09/04 03:21:51;;;;;;;6.30;3.90;;;;;;;15.30;56.85;101019.91;118489;1185;23654;-64
2022/09/04 03:24:18;;;;;;;8.20;4.60;;;;;;;15.33;56.65;101020.05;117092;1183;24279;-58
2022/09/04 03:26:49;;;;;;;5.90;4.10;;;;;;;15.35;56.73;101016.99;118015;1184;23740;-66
2022/09/04 03:29:41;;;;;;;14.20;4.40;;;;;;;15.37;56.61;101020.48;116911;1188;21913;-66
2022/09/04 03:32:15;;;;;;;13.80;4.60;;;;;;;15.41;56.57;101015.27;116972;1187;21858;-66
2022/09/04 03:34:56;;;;;;;9.30;4.20;;;;;;;15.44;56.53;101017.50;117012;1185;21860;-66
2022/09/04 03:37:30;;;;;;;;;;;;;;;15.47;56.41;101016.73;117053;1186;21907;-66
2022/09/04 03:40:24;;;;;;;7.10;4.20;;;;;;;15.49;56.32;101008.02;117114;1186;23557;-58
2022/09/04 03:42:54;;;;;;;6.80;4.20;;;;;;;15.52;56.30;101009.02;116916;1188;23697;-58
2022/09/04 03:45:34;;;;;;;6.80;4.20;;;;;;;15.54;56.25;101018.88;117059;1187;22989;-66
2022/09/04 03:48:40;;;;;;;5.90;3.60;;;;;;;15.53;56.15;101023.85;117101;1188;22821;-57
2022/09/04 03:51:24;;;;;;;5.80;4.10;;;;;;;15.53;56.12;101027.89;117136;1182;23554;-66
2022/09/04 03:54:06;;;;;;;6.00;4.50;;;;;;;15.56;56.15;101032.80;117005;1187;23652;-66
2022/09/04 03:56:40;;;;;;;12.30;4.10;;;;;;;15.59;56.22;101034.50;117078;1183;22943;-59
2022/09/04 03:59:08;;;;;;;22.30;5.00;;;;;;;15.73;56.09;101033.47;117112;1184;22944;-64
2022/09/04 04:02:03;;;;;;;15.10;4.00;;;;;;;15.89;56.18;101034.53;117080;1185;22346;-59
2022/09/04 04:04:34;;;;;;;11.90;4.50;;;;;;;16.06;55.98;101037.66;117193;1186;22969;-59
2022/09/04 04:07:13;;;;;;;8.20;4.00;;;;;;;16.18;56.04;101038.09;117357;1186;21868;-57
2022/09/04 04:10:06;;;;;;;6.50;4.50;;;;;;;16.17;55.80;101039.69;117334;1180;22925;-65
2022/09/04 04:12:41;;;;;;;7.40;4.20;;;;;;;16.06;55.67;101041.76;117262;1182;23632;-57
2022/09/04 04:15:37;;;;;;;9.00;4.20;;;;;;;15.96;55.88;101043.23;117339;1186;23445;-64
2022/09/04 04:18:33;;;;;;;6.60;4.00;;;;;;;15.86;55.89;101046.28;117134;1183;24715;-65
2022/09/04 04:21:19;;;;;;;4.80;3.40;;;;;;;15.81;56.00;101048.50;117096;1183;21918;-57
2022/09/04 04:24:21;;;;;;;6.60;4.30;;;;;;;15.80;56.23;101045.35;117043;1184;23553;-64
2022/09/04 04:27:13;;;;;;;15.50;4.90;;;;;;;15.81;56.23;101045.14;117088;1188;22322;-56
2022/09/04 04:30:02;;;;;;;9.80;4.90;;;;;;;15.92;56.21;101052.52;117029;1187;24278;-64
2022/09/04 04:33:11;;;;;;;14.60;4.80;;;;;;;15.98;56.19;101053.98;117083;1187;21905;-65
2022/09/04 04:35:38;;;;;;;12.20;4.60;;;;;;;16.06;56.24;101059.45;116984;1185;23462;-56
2022/09/04 04:38:44;;;;;;;9.20;4.40;;;;;;;16.10;56.15;101062.17;117148;1183;21845;-56
2022/09/04 04:41:24;;;;;;;7.20;4.20;;;;;;;16.14;56.19;101061.89;117205;1182;23529;-56
2022/09/04 04:44:10;;;;;;;5.80;4.20;;;;;;;16.18;56.11;101061.45;117093;1186;21866;-66
2022/09/04 04:46:50;;;;;;;7.80;4.50;;;;;;;16.22;56.04;101063.13;117001;1187;22806;-67
2022/09/04 04:49:56;;;;;;;7.10;4.10;;;;;;;16.27;56.06;101062.14;117092;1182;23469;-67
2022/09/04 04:52:43;;;;;;;7.20;4.70;;;;;;;16.35;56.01;101064.41;117068;1185;24201;-58
2022/09/04 04:55:15;;;;;;;9.50;4.60;;;;;;;16.40;56.12;101071.89;117012;1187;22929;-57
2022/09/04 04:57:55;;;;;;;9.70;4.50;;;;;;;16.44;56.10;101075.15;117041;1186;22108;-57
2022/09/04 05:00:44;;;;;;;5.90;3.60;;;;;;;16.48;55.94;101076.66;117009;1184;23021;-66
2022/09/04 05:03:24;;;;;;;8.20;4.00;;;;;;;16.54;56.02;101079.70;117058;1187;23582;-58
2022/09/04 05:06:01;;;;;;;5.90;4.40;;;;;;;16.58;56.01;101082.05;117038;1185;23653;-66
2022/09/04 05:08:36;;;;;;;4.90;3.60;;;;;;;16.61;55.98;101083.73;117112;1188;22091;-66
2022/09/04 05:11:21;;;;;;;5.10;4.00;;;;;;;16.67;56.00;101088.92;117098;1188;21858;-66
2022/09/04 05:14:24;;;;;;;5.90;3.70;;;;;;;16.75;56.03;101088.36;116988;1185;24143;-58
2022/09/04 05:17:03;;;;;;;6.50;3.80;;;;;;;16.83;55.92;101092.38;117115;1188;21993;-58
2022/09/04 05:19:33;;;;;;;6.00;4.20;;;;;;;16.90;56.02;101093.08;116926;1188;21879;-58
2022/09/04 05:22:07;;;;;;;5.80;4.10;;;;;;;16.96;55.79;101096.13;117019;1186;21858;-58
2022/09/04 05:24:43;;;;;;;5.80;3.60;;;;;;;17.03;55.91;101098.97;117105;1186;22931;-58
2022/09/04 05:27:21;;;;;;;5.10;3.70;;;;;;;17.11;55.94;101099.63;117097;1186;22157;-58
2022/09/04 05:29:55;;;;;;;5.40;3.80;;;;;;;17.21;55.72;101096.71;117084;1183;24284;-57
2022/09/04 05:32:41;;;;;;;7.00;4.00;;;;;;;17.28;55.61;101097.38;117122;1184;21855;-62
2022/09/04 05:35:17;;;;;;;4.90;3.70;;;;;;;17.34;55.60;101091.70;117126;1187;24151;-66
2022/09/04 05:37:54;;;;;;;6.60;4.20;;;;;;;17.43;55.62;101088.25;116986;1186;21860;-65
2022/09/04 05:40:37;;;;;;;5.70;3.90;;;;;;;17.52;55.57;101088.15;117085;1182;23453;-58
2022/09/04 05:43:16;;;;;;;6.40;4.30;;;;;;;17.63;55.37;101085.00;116990;1187;23001;-65
2022/09/04 05:46:02;;;;;;;7.00;3.70;;;;;;;17.73;55.41;101089.12;117064;1188;23290;-66
2022/09/04 05:48:51;;;;;;;5.60;3.90;;;;;;;17.84;55.32;101090.77;116932;1184;22998;-65
2022/09/04 05:51:52;;;;;;;5.20;4.30;;;;;;;17.96;55.22;101095.35;117171;1183;22008;-58
2022/09/04 05:54:37;;;;;;;;;;;;;;;18.08;55.05;101099.95;117049;1185;21980;-58
2022/09/04 05:57:24;;;;;;;6.20;3.60;;;;;;;18.21;55.16;101100.80;117151;1183;23060;-65
2022/09/04 06:00:24;;;;;;;5.80;3.80;;;;;;;18.33;54.93;101100.22;117114;1184;21857;-58
2022/09/04 06:02:57;;;;;;;5.10;3.60;;;;;;;18.42;54.78;101105.23;116897;1187;22928;-65
2022/09/04 06:05:52;;;;;;;5.00;3.40;;;;;;;18.55;54.75;101106.78;117063;1187;22931;-58
2022/09/04 06:08:57;;;;;;;6.00;3.70;;;;;;;18.70;54.54;101105.75;117099;1183;22926;-58
2022/09/04 06:11:32;;;;;;;5.70;3.40;;;;;;;18.85;54.28;101098.81;116995;1186;21859;-66
2022/09/04 06:14:21;;;;;;;5.20;3.70;;;;;;;18.97;54.32;101097.15;117140;1183;21872;-58
2022/09/04 06:16:51;;;;;;;5.60;3.90;;;;;;;19.14;54.52;101094.96;117152;1182;23481;-65
2022/09/04 06:19:18;;;;;;;6.90;4.00;;;;;;;19.31;54.27;101096.48;117118;1184;22919;-58
2022/09/04 06:21:55;;;;;;;9.50;3.70;;;;;;;19.42;53.77;101102.45;117144;1186;23453;-58
2022/09/04 06:24:45;;;;;;;6.00;3.60;;;;;;;19.51;53.73;101101.23;117009;1186;21844;-65
2022/09/04 06:27:22;;;;;;;6.50;3.50;;;;;;;19.67;53.58;101104.73;117083;1182;23450;-58
2022/09/04 06:29:58;;;;;;;5.10;3.70;;;;;;;19.82;53.44;101111.42;117098;1186;22964;-65
2022/09/04 06:33:04;;;;;;;5.50;3.40;;;;;;;19.99;53.49;101115.95;117132;1184;21866;-58
2022/09/04 06:35:50;;;;;;;5.90;3.30;;;;;;;20.22;53.34;101118.42;117061;1184;23453;-58
2022/09/04 06:38:20;;;;;;;5.30;3.40;;;;;;;20.41;52.98;101119.78;117043;1184;22925;-65
2022/09/04 06:40:54;;;;;;;5.20;3.20;;;;;;;20.57;52.75;101119.49;117025;1186;22628;-65
2022/09/04 06:43:58;;;;;;;5.20;3.20;;;;;;;20.72;52.25;101121.16;117117;1184;22411;-65
2022/09/04 06:46:37;;;;;;;5.90;3.50;;;;;;;20.86;51.97;101125.42;117162;1185;24169;-66
2022/09/04 06:49:46;;;;;;;5.90;3.40;;;;;;;20.99;51.85;101128.75;117120;1188;21859;-65
2022/09/04 06:52:21;;;;;;;6.10;2.90;;;;;;;21.13;51.75;101128.34;117076;1184;23457;-65
2022/09/04 06:55:25;;;;;;;4.70;2.90;;;;;;;21.27;51.27;101127.38;117196;1186;22921;-58
2022/09/04 06:58:04;;;;;;;3.80;2.60;;;;;;;21.48;51.48;101135.13;117140;1189;21856;-66
2022/09/04 07:00:52;;;;;;;7.00;3.10;;;;;;;21.73;51.25;101138.11;117120;1188;21845;-59
2022/09/04 07:03:32;;;;;;;4.90;3.00;;;;;;;21.91;50.68;101140.51;117181;1186;21894;-59
2022/09/04 07:06:29;;;;;;;4.30;3.00;;;;;;;22.03;50.56;101142.08;117139;1184;22925;-65
2022/09/04 07:09:30;;;;;;;5.40;3.30;;;;;;;22.15;50.50;101142.20;117149;1186;23689;-65
2022/09/04 07:12:16;;;;;;;7.10;3.20;;;;;;;22.25;50.07;101141.53;117286;1186;22938;-59
2022/09/04 07:15:22;;;;;;;5.30;3.20;;;;;;;22.33;49.90;101139.02;117063;1187;21858;-66
2022/09/04 07:18:11;;;;;;;6.00;2.70;;;;;;;22.46;49.92;101141.06;117099;1186;24172;-59
2022/09/04 07:21:18;;;;;;;5.80;2.80;;;;;;;22.67;49.70;101141.30;117187;1188;21857;-65
2022/09/04 07:23:54;;;;;;;6.60;2.90;;;;;;;22.89;49.14;101135.34;117084;1187;23481;-59
2022/09/04 07:26:45;;;;;;;;;;;;;;;23.10;49.38;101136.17;117312;1186;22974;-59
2022/09/04 07:29:39;;;;;;;4.70;2.60;;;;;;;23.33;49.19;101130.34;117115;1184;22913;-65
2022/09/04 07:32:10;;;;;;;9.40;3.00;;;;;;;23.55;49.07;101130.05;117019;1185;22963;-66
2022/09/04 07:34:59;;;;;;;4.80;2.40;;;;;;;23.74;48.65;101127.59;117113;1184;22941;-65
2022/09/04 07:37:46;;;;;;;5.10;3.20;;;;;;;23.88;48.14;101132.70;117118;1187;21857;-66
2022/09/04 07:40:40;;;;;;;4.00;2.20;;;;;;;23.97;47.62;101137.64;117147;1185;24221;-65
2022/09/04 07:43:29;;;;;;;6.00;2.60;;;;;;;24.08;47.45;101136.80;117119;1185;21896;-66
2022/09/04 07:46:21;;;;;;;5.10;2.30;;;;;;;24.15;47.22;101134.81;117120;1184;24214;-67
2022/09/04 07:48:54;;;;;;;4.50;2.10;;;;;;;24.22;46.92;101130.29;117075;1188;22925;-66
2022/09/04 07:51:33;;;;;;;4.70;2.00;;;;;;;24.40;46.87;101128.88;117168;1183;24169;-59
2022/09/04 07:54:28;;;;;;;5.30;2.60;;;;;;;24.55;46.40;101126.91;117056;1184;23534;-67
2022/09/04 07:57:21;;;;;;;5.20;2.30;;;;;;;24.62;46.03;101128.52;117038;1188;21871;-66
2022/09/04 08:00:09;;;;;;;5.50;2.50;;;;;;;24.68;46.07;101126.89;117097;1186;21864;-65
2022/09/04 08:03:00;;;;;;;4.90;2.50;;;;;;;24.83;46.28;101127.48;117163;1186;22156;-67
2022/09/04 08:05:31;;;;;;;;;;;;;;;25.06;46.18;101119.41;117084;1184;23534;-68
2022/09/04 08:08:32;;;;;;;5.60;1.90;;;;;;;25.33;46.11;101116.52;117037;1187;22932;-67
2022/09/04 08:11:07;;;;;;;3.50;1.90;;;;;;;25.66;45.80;101123.95;117081;1187;21867;-66
2022/09/04 08:13:59;;;;;;;6.80;2.10;;;;;;;25.85;44.87;101119.67;117139;1186;22945;-67
2022/09/04 08:16:32;;;;;;;2.90;1.50;;;;;;;26.03;44.82;101121.27;117042;1186;24154;-59
2022/09/04 08:19:39;;;;;;;2.90;1.90;;;;;;;26.15;44.73;101121.92;117191;1183;21897;-60
2022/09/04 08:22:11;;;;;;;4.50;2.00;;;;;;;26.31;44.29;101121.27;116980;1182;21861;-66
2022/09/04 08:24:43;;;;;;;5.50;1.80;;;;;;;26.30;43.52;101126.16;117146;1183;21869;-67
2022/09/04 08:27:29;;;;;;;3.90;2.10;;;;;;;26.22;43.41;101126.50;117034;1184;23438;-67
2022/09/04 08:30:11;;;;;;;4.80;2.20;;;;;;;26.31;43.59;101131.31;117087;1183;23005;-60
2022/09/04 08:32:47;;;;;;;2.90;1.80;;;;;;;26.47;43.20;101135.64;117071;1185;22995;-59
2022/09/04 08:35:14;;;;;;;3.00;1.70;;;;;;;26.60;42.83;101134.23;117074;1189;22929;-60
2022/09/04 08:37:51;;;;;;;3.90;2.20;;;;;;;26.69;42.81;101131.39;117036;1184;22651;-60
2022/09/04 08:40:53;;;;;;;3.30;2.00;;;;;;;26.76;42.43;101133.30;117302;1182;23036;-66
2022/09/04 08:43:26;;;;;;;7.30;2.30;;;;;;;26.70;42.27;101139.67;117127;1186;21860;-59
2022/09/04 08:46:18;;;;;;;8.50;2.20;;;;;;;26.66;42.13;101141.52;117121;1179;22929;-60
2022/09/04 08:49:14;;;;;;;4.40;2.20;;;;;;;26.67;41.53;101137.15;117103;1184;23693;-66
2022/09/04 08:52:02;;;;;;;5.70;2.00;;;;;;;26.57;41.43;101136.02;117083;1187;21864;-67
2022/09/04 08:54:41;;;;;;;3.70;1.60;;;;;;;26.42;41.30;101137.21;116932;1186;22968;-67
2022/09/04 08:57:22;;;;;;;3.80;1.70;;;;;;;26.25;41.26;101139.10;117116;1188;23442;-65
2022/09/04 08:59:59;;;;;;;3.50;1.60;;;;;;;26.27;41.71;101136.77;116989;1184;24249;-59
2022/09/04 09:02:45;;;;;;;8.60;1.90;;;;;;;26.27;40.98;101133.34;117047;1186;21864;-66
2022/09/04 09:05:54;;;;;;;5.10;2.00;;;;;;;26.00;40.92;101135.45;116952;1188;22113;-61
2022/09/04 09:08:46;;;;;;;3.50;1.30;;;;;;;25.71;41.41;101135.33;117165;1181;23547;-60
2022/09/04 09:11:44;;;;;;;4.70;1.80;;;;;;;25.56;41.19;101133.97;117126;1183;24709;-60
2022/09/04 09:14:30;;;;;;;4.20;1.90;;;;;;;25.37;41.16;101133.14;117033;1186;23005;-67
2022/09/04 09:17:15;;;;;;;2.90;1.50;;;;;;;25.29;41.29;101132.22;116984;1184;23557;-66
2022/09/04 09:20:24;;;;;;;1.70;1.20;;;;;;;25.22;40.80;101130.30;117116;1188;21868;-60
2022/09/04 09:23:10;;;;;;;5.10;1.70;;;;;;;25.14;40.95;101135.14;117132;1188;22629;-67
2022/09/04 09:26:05;;;;;;;2.20;1.40;;;;;;;25.01;40.72;101137.89;117075;1185;23570;-60
2022/09/04 09:28:57;;;;;;;4.00;1.40;;;;;;;24.92;41.15;101139.70;117116;1182;23958;-60
2022/09/04 09:31:54;;;;;;;3.70;1.40;;;;;;;25.02;41.34;101134.05;117278;1182;22949;-60
2022/09/04 09:35:02;;;;;;;2.90;1.50;;;;;;;25.39;40.96;101136.45;117001;1187;22992;-66
2022/09/04 09:38:00;;;;;;;5.00;1.50;;;;;;;25.76;40.76;101136.98;117187;1186;21855;-67
2022/09/04 09:40:54;;;;;;;4.00;1.80;;;;;;;26.25;40.59;101131.49;117031;1187;24175;-67
2022/09/04 09:43:40;;;;;;;1.90;1.30;;;;;;;26.78;39.93;101124.54;117233;1186;22733;-66
2022/09/04 09:46:26;;;;;;;4.40;1.60;;;;;;;26.93;39.50;101128.75;117098;1184;23570;-66
2022/09/04 09:49:24;;;;;;;3.50;1.50;;;;;;;26.86;39.32;101133.73;117094;1188;21900;-67
2022/09/04 09:52:27;;;;;;;6.70;1.60;;;;;;;26.95;39.68;101131.88;117029;1184;23552;-66
2022/09/04 09:55:10;;;;;;;3.10;1.40;;;;;;;27.29;39.59;101126.60;116892;1184;22948;-66
2022/09/04 09:58:18;;;;;;;1.80;1.20;;;;;;;27.54;39.05;101126.48;117090;1185;23276;-67
2022/09/04 10:01:12;;;;;;;3.40;1.50;;;;;;;27.51;38.60;101125.77;117051;1187;23627;-60
2022/09/04 10:03:58;;;;;;;3.50;1.50;;;;;;;27.52;38.60;101128.27;116957;1189;21860;-60
2022/09/04 10:06:58;;;;;;;3.10;1.30;;;;;;;27.58;38.47;101130.49;116983;1189;22648;-66
2022/09/04 10:09:28;;;;;;;5.90;1.90;;;;;;;27.85;38.40;101129.84;117081;1187;22929;-60
2022/09/04 10:12:01;;;;;;;3.10;1.20;;;;;;;28.22;38.37;101128.20;117080;1183;22932;-67
2022/09/04 10:14:47;;;;;;;2.60;1.20;;;;;;;28.57;38.36;101122.28;117001;1182;23560;-60
2022/09/04 10:17:32;;;;;;;3.60;1.60;;;;;;;28.92;37.90;101127.02;117008;1188;22025;-59
2022/09/04 10:20:27;;;;;;;5.20;1.50;;;;;;;28.95;37.33;101129.13;117010;1183;23506;-59
2022/09/04 10:23:24;;;;;;;3.10;1.30;;;;;;;28.82;37.20;101130.52;116912;1189;22639;-58
2022/09/04 10:26:08;;;;;;;1.90;1.50;;;;;;;28.65;36.83;101122.27;117070;1186;22142;-67
2022/09/04 10:29:10;;;;;;;3.40;1.50;;;;;;;28.65;37.30;101118.64;116950;1184;24398;-67
2022/09/04 10:31:53;;;;;;;2.40;1.30;;;;;;;28.87;37.26;101120.21;116836;1187;22648;-66
2022/09/04 10:34:43;;;;;;;2.70;1.30;;;;;;;29.11;36.96;101111.34;116932;1186;21867;-59
2022/09/04 10:37:42;;;;;;;4.60;1.80;;;;;;;29.53;36.89;101107.43;116687;1188;21902;-65
2022/09/04 10:40:34;;;;;;;4.40;1.50;;;;;;;30.09;36.53;101109.02;116951;1186;21861;-66
2022/09/04 10:43:45;;;;;;;2.60;1.40;;;;;;;30.44;35.87;101109.70;116963;1189;21970;-65
2022/09/04 10:46:40;;;;;;;3.60;1.50;;;;;;;30.69;35.69;101108.70;116955;1188;22487;-60
2022/09/04 10:49:16;;;;;;;5.70;2.00;;;;;;;30.83;35.29;101112.23;117115;1185;23621;-59
2022/09/04 10:51:58;;;;;;;4.80;1.20;;;;;;;30.99;35.00;101110.17;116955;1187;22737;-60
2022/09/04 10:54:31;;;;;;;2.40;1.20;;;;;;;31.12;34.61;101106.06;117008;1184;21875;-67
2022/09/04 10:56:58;;;;;;;3.50;1.40;;;;;;;31.09;33.88;101108.71;117079;1186;22709;-59
2022/09/04 11:00:03;;;;;;;5.70;1.30;;;;;;;30.94;33.03;101103.48;117045;1185;23597;-60
2022/09/04 11:02:39;;;;;;;2.90;1.20;;;;;;;30.82;33.76;101107.39;116999;1183;22929;-66
2022/09/04 11:05:19;;;;;;;4.10;1.70;;;;;;;30.58;33.68;101111.07;117070;1188;22929;-59
2022/09/04 11:08:16;;;;;;;2.30;1.30;;;;;;;30.26;33.36;101115.44;117206;1186;21858;-59
2022/09/04 11:10:47;;;;;;;3.30;1.50;;;;;;;29.97;33.18;101107.45;116965;1187;23717;-59
2022/09/04 11:13:42;;;;;;;7.00;1.20;;;;;;;29.94;33.75;101101.73;117075;1183;21869;-60
2022/09/04 11:16:46;;;;;;;3.60;1.50;;;;;;;29.96;33.62;101103.38;117078;1188;21851;-59
2022/09/04 11:19:59;;;;;;;3.60;1.60;;;;;;;30.05;33.26;101105.42;117011;1187;22963;-59
2022/09/04 11:22:33;;;;;;;3.10;1.60;;;;;;;30.33;33.33;101100.90;116912;1191;21856;-60
2022/09/04 11:25:32;;;;;;;2.70;1.30;;;;;;;30.58;33.33;101098.98;117010;1182;21856;-59
2022/09/04 11:28:39;;;;;;;2.40;1.30;;;;;;;30.58;33.03;101098.41;117022;1186;23621;-68
2022/09/04 11:31:25;;;;;;;4.10;1.00;;;;;;;30.31;31.94;101094.39;117081;1188;23544;-59
2022/09/04 11:33:52;;;;;;;3.00;1.30;;;;;;;29.92;32.82;101094.31;117009;1188;21867;-59
2022/09/04 11:36:35;;;;;;;3.30;1.30;;;;;;;29.84;32.11;101087.91;116974;1185;21885;-60
2022/09/04 11:39:31;;;;;;;4.30;1.40;;;;;;;29.85;32.01;101080.44;117034;1188;23548;-59
2022/09/04 11:42:19;;;;;;;3.70;1.20;;;;;;;29.96;32.58;101086.23;116953;1187;23457;-61
2022/09/04 11:44:46;;;;;;;1.70;1.10;;;;;;;30.14;32.54;101089.64;117126;1184;23557;-60
2022/09/04 11:47:32;;;;;;;2.80;1.40;;;;;;;30.16;31.90;101087.88;117089;1187;21853;-60
2022/09/04 11:50:27;;;;;;;3.20;1.30;;;;;;;29.98;32.26;101085.33;117053;1187;23043;-60
2022/09/04 11:52:55;;;;;;;2.40;1.20;;;;;;;29.80;32.11;101087.36;117059;1186;21902;-60
2022/09/04 11:55:41;;;;;;;3.70;1.40;;;;;;;29.76;32.76;101090.59;116893;1189;21883;-60
2022/09/04 11:58:45;;;;;;;2.40;1.50;;;;;;;29.96;32.84;101090.20;116983;1184;22929;-60
2022/09/04 12:01:42;;;;;;;4.70;1.10;;;;;;;30.07;32.07;101094.77;117009;1187;23046;-60
2022/09/04 12:04:42;;;;;;;3.70;1.10;;;;;;;29.86;31.93;101087.09;117033;1186;21863;-61
2022/09/04 12:07:21;;;;;;;1.90;1.20;;;;;;;29.77;32.10;101084.52;117065;1184;22814;-60
2022/09/04 12:09:50;;;;;;;3.20;1.30;;;;;;;29.65;31.07;101086.22;116994;1187;22476;-61
2022/09/04 12:12:21;;;;;;;2.00;1.20;;;;;;;29.35;30.94;101086.30;117060;1184;22838;-60
2022/09/04 12:15:19;;;;;;;4.10;1.20;;;;;;;29.07;31.60;101084.16;117062;1182;22929;-60
2022/09/04 12:18:00;;;;;;;2.80;1.10;;;;;;;29.05;32.43;101085.94;117060;1184;23569;-60
2022/09/04 12:20:49;;;;;;;2.20;1.40;;;;;;;29.20;31.94;101089.27;117046;1187;23722;-60
2022/09/04 12:23:35;;;;;;;1.70;1.20;;;;;;;29.22;31.89;101091.60;117048;1184;22851;-60
2022/09/04 12:26:29;;;;;;;1.90;1.20;;;;;;;29.05;31.76;101095.34;117069;1182;23583;-60
2022/09/04 12:29:16;;;;;;;3.30;1.10;;;;;;;28.78;31.50;101093.23;118896;1185;22157;-60
2022/09/04 12:31:45;;;;;;;2.80;1.40;;;;;;;28.49;31.85;101094.55;116974;1186;22087;-60
2022/09/04 12:34:32;;;;;;;4.10;1.50;;;;;;;28.32;31.97;101096.23;117588;1187;23558;-60
2022/09/04 12:37:34;;;;;;;5.40;1.60;;;;;;;28.18;32.31;101098.02;117052;1182;23020;-60
2022/09/04 12:40:04;;;;;;;2.20;1.30;;;;;;;28.28;32.61;101099.08;116980;1185;23582;-60
2022/09/04 12:42:47;;;;;;;3.20;1.40;;;;;;;28.41;32.35;101096.84;117060;1186;23450;-60